CDT,Max TemperatureF,Mean TemperatureF,Min TemperatureF,Max Dew PointF,MeanDew PointF,Min DewpointF,Max Humidity, Mean Humidity, Min Humidity, Max Sea Level PressureIn, Mean Sea Level PressureIn, Min Sea Level PressureIn, Max VisibilityMiles, Mean VisibilityMiles, Min VisibilityMiles, Max Wind SpeedMPH, Mean Wind SpeedMPH, Max Gust SpeedMPH,PrecipitationIn, CloudCover, Events, WindDirDegrees
2014-3-1,85,62,38,46,35,20,86,52,18,30.03,29.87,29.74,10,9,1,23,7,27,0.00,1,,345
2014-3-2,38,27,15,36,19,9,92,83,73,30.44,30.19,30.03,10,4,0,30,20,36,0.03,8,Fog-Rain-Snow,359
2014-3-3,35,23,11,14,9,5,73,56,39,30.50,30.39,30.26,10,10,10,26,12,32,T,2,,8
2014-3-4,62,42,22,32,21,15,74,50,25,30.22,30.06,29.91,10,10,10,22,8,27,0.00,0,,160
2014-3-5,61,49,37,37,34,32,79,59,39,30.22,29.99,29.85,10,9,2,29,12,35,0.00,2,,168
2014-3-6,65,50,34,33,31,26,89,57,24,30.27,30.16,29.96,10,8,2,16,8,21,0.00,4,,320
2014-3-7,78,63,48,45,38,31,54,41,27,29.94,29.79,29.68,10,10,10,28,17,37,0.00,0,,177
2014-3-8,61,48,34,47,30,25,70,58,45,30.35,30.14,29.79,10,9,6,26,16,31,T,5,Rain,355
2014-3-9,63,46,28,31,27,23,78,53,27,30.38,30.29,30.18,10,10,10,16,7,17,0.00,3,,318
2014-3-10,76,59,42,32,31,27,62,41,19,30.18,29.99,29.81,10,10,10,22,11,27,0.00,0,,194
2014-3-11,92,71,49,51,38,23,96,54,11,29.98,29.67,29.48,10,9,5,38,19,49,0.00,1,,236
2014-3-12,59,47,35,32,24,16,64,43,21,30.36,30.22,30.01,10,10,10,35,15,43,0.00,0,,9
2014-3-13,68,49,30,20,18,15,54,30,7,30.30,30.18,29.97,10,10,9,16,8,24,0.00,0,,183
2014-3-14,78,64,50,47,35,21,59,43,26,29.97,29.91,29.85,10,10,10,22,12,29,0.00,0,,189
2014-3-15,71,62,53,59,53,48,93,73,52,29.85,29.77,29.65,10,8,0,28,7,34,0.61,4,Fog-Rain-Thunderstorm,157
2014-3-16,54,46,37,51,35,28,96,70,44,30.14,30.02,29.82,10,10,10,38,21,47,0.00,3,,353
2014-3-17,70,50,30,29,26,24,78,48,18,30.12,29.88,29.57,10,10,5,22,9,27,0.00,0,,205
2014-3-18,88,70,52,34,26,19,32,24,15,29.98,29.63,29.47,10,8,2,31,20,42,0.00,1,,259
2014-3-19,64,52,40,26,24,21,54,37,20,30.23,30.15,29.96,10,10,7,25,10,31,0.00,2,,12
2014-3-20,76,57,37,29,26,24,59,38,16,30.23,30.10,29.91,10,10,9,18,9,23,0.00,0,,171
2014-3-21,81,71,60,56,48,32,72,52,32,29.89,29.81,29.71,10,10,10,26,15,33,0.00,1,,184
2014-3-22,67,56,45,39,35,31,61,48,34,30.14,29.99,29.88,10,10,10,17,10,25,0.00,3,,3
2014-3-23,56,47,37,35,24,17,65,45,24,30.38,30.26,30.13,10,10,9,24,11,29,T,5,Rain,30
2014-3-24,73,54,35,42,31,22,59,42,25,30.24,30.12,29.99,10,10,8,15,7,19,0.00,1,,132
2014-3-25,66,52,37,27,24,20,64,42,19,30.37,30.23,30.12,10,10,7,20,10,32,0.00,0,,80
2014-3-26,66,57,47,53,42,22,78,56,34,30.09,29.91,29.76,10,10,10,37,21,47,0.03,6,Rain,166
2014-3-27,86,74,61,57,43,21,78,47,15,29.73,29.68,29.62,10,10,10,31,17,41,0.00,2,,218
2014-3-28,80,65,50,42,35,22,59,40,21,30.10,29.82,29.68,10,10,10,26,9,32,T,0,Rain,327
2014-3-29,75,57,39,37,30,24,79,48,16,30.32,30.20,30.13,10,10,10,15,7,26,0.00,0,,75
2014-3-30,82,68,54,46,35,28,45,32,18,30.14,29.98,29.79,10,10,10,31,20,39,0.00,0,,172
2014-3-31,90,75,60,55,44,21,78,46,13,29.85,29.78,29.72,10,10,2,31,14,40,0.00,0,,206